Terminal Aerodrome Forecast
Issued by NWS Upton, NY

Home | Current Version | Previous Version | Text Only | Print | Product List | Glossary On
Versions: 1 2 3 4 5 6 7 8 9 10 11 12 13 14 15 16 17 18 19 20 21 22 23 24 25 26 27 28 29 30 31 32 33 34
937
FTUS41 KOKX 262044 AAB
TAFISP
TAF AMD
KISP 262044Z 2621/2718 30015G23KT P6SM VCSH SCT045 BKN070
     FM262300 31009KT P6SM BKN035
     FM270200 33006KT P6SM SCT025
     FM271700 21007KT P6SM SCT030 BKN080=

USA.gov is the U.S. government's official web portal to all federal, state and local government web resources and services.